Etusivu
METAR-TAF:

METAR-TAF

Lentoasemat :

Austin, Texas, Yhdysvallat

Leveyspiiri: 30-24-00N, Pituuspiiri: 097-34-25W, korkeus merenpinnasta: 189 m

Tämänhetkinen sää

Tämä raportti tehtiin 12 minuuttia sitten, kello 17.35 UTC
Tuuli 10 kn etelästä
Lämpötila 33°C
Kosteus 67%
Ilmanpaine 1007 hPa
Näkyvyys: 8.0 km
Muutamia pilviä 3200 ft:n korkeudessa
usvaa

METAR: KEDC 241735Z AUTO 19010KT 5SM HZ FEW032 33/26 A2975 RMK AO2

Aika: 11:47 (17:47 UTC)


TAF: puuttuu

Säähavainnot ja -ennusteet yli 4000 lentoasemalta (METAR- ja TAF-raportit).

Käytössä olevat sääasemat on merkitty karttaan keltaisilla ja punaisilla pisteillä.

Aseta hiiri pisteen päälle nähdäksesi sääaseman nimen.

Klikkaa sitten nähdäksesi säähavainnot ja -ennusteet.

Kartan vaihtaminen: klikkaa mustalla rastilla varustettuja vihreitä pisteitä, niin voit zoomata sisään; viivalla varustettua vihreää pistettä, niin voit zoomata ulos tai vihreitä nuolia, niin pääset viereisille kartoille.


METAR-TAF: